Portada
METAR-TAF:

METAR-TAF

Aeroports :

Albertus Airport

Freeport, Illinois, Estats Units d'Amèrica

latitud: 42-14-47N, longitud: 089-34-56W, altitud: 262 m

Observació

L'informe es va fer fa 12 minuts, a les 18:15 UTC
Vent 6 kt del Sud/Sud-Oest
Temperatura 29°C
Humitat 48%
Pressió 1012 hPa
Visibilitat: 16.1 km
Núvols disperses a una alçada de 5500 ft
Núvols disperses a una alçada de 7000 ft
Núvols disperses a una alçada de 8500 ft

METAR: KFEP 251815Z AUTO 21006KT 10SM SCT055 SCT070 SCT085 29/17 A2987 RMK AO2 T02930172

Hora: 13:27 (18:27 UTC)


TAF: manca

Observacions i pronòstics meteorològics de més de 4000 aeroports (METAR i TAF).

Les estacions disponibles són els punts grocs i vermells al mapa.

Posi el ratolí al punt desitjat per veure el nom de l'estació.

Feu clic per veure les observacions i els pronòstics meteorològics.

Per canviar el mapa: feu clic els botons verds amb una creu de color negre per apropar; al botó verd amb un guió per allunyar la imatge; o en les fletxes verdes per a mapes adjacents.


METAR-TAF: